sensor_id;sensor_type;location;lat;lon;timestamp;P1;durP1;ratioP1;P2;durP2;ratioP2
56267;SDS011;42175;46.930;9.532;2023-08-20T00:00:11;13.32;;;7.07;;
56267;SDS011;42175;46.930;9.532;2023-08-20T00:02:38;18.17;;;7.50;;
56267;SDS011;42175;46.930;9.532;2023-08-20T00:05:07;11.88;;;7.28;;
56267;SDS011;42175;46.930;9.532;2023-08-20T00:07:34;10.30;;;7.45;;
56267;SDS011;42175;46.930;9.532;2023-08-20T00:10:01;17.38;;;8.40;;
56267;SDS011;42175;46.930;9.532;2023-08-20T00:12:29;12.23;;;7.65;;
56267;SDS011;42175;46.930;9.532;2023-08-20T00:14:59;13.77;;;8.48;;
56267;SDS011;42175;46.930;9.532;2023-08-20T00:17:36;14.70;;;8.23;;
56267;SDS011;42175;46.930;9.532;2023-08-20T00:20:04;15.90;;;8.07;;
56267;SDS011;42175;46.930;9.532;2023-08-20T00:22:39;12.93;;;7.18;;
56267;SDS011;42175;46.930;9.532;2023-08-20T00:25:07;15.93;;;8.48;;
56267;SDS011;42175;46.930;9.532;2023-08-20T00:27:33;18.27;;;8.85;;
56267;SDS011;42175;46.930;9.532;2023-08-20T00:29:59;20.67;;;8.50;;
56267;SDS011;42175;46.930;9.532;2023-08-20T00:32:26;17.42;;;8.65;;
56267;SDS011;42175;46.930;9.532;2023-08-20T00:34:51;16.98;;;8.30;;
56267;SDS011;42175;46.930;9.532;2023-08-20T00:37:17;19.30;;;8.05;;
56267;SDS011;42175;46.930;9.532;2023-08-20T00:39:43;14.13;;;7.72;;
56267;SDS011;42175;46.930;9.532;2023-08-20T00:42:09;17.75;;;7.90;;
56267;SDS011;42175;46.930;9.532;2023-08-20T00:44:35;15.80;;;7.93;;
56267;SDS011;42175;46.930;9.532;2023-08-20T00:47:01;15.48;;;7.93;;
56267;SDS011;42175;46.930;9.532;2023-08-20T00:49:29;14.13;;;8.23;;
56267;SDS011;42175;46.930;9.532;2023-08-20T00:51:57;21.15;;;8.20;;
56267;SDS011;42175;46.930;9.532;2023-08-20T00:54:23;13.35;;;7.63;;
56267;SDS011;42175;46.930;9.532;2023-08-20T00:56:50;12.63;;;7.88;;
56267;SDS011;42175;46.930;9.532;2023-08-20T00:59:17;15.52;;;7.65;;
56267;SDS011;42175;46.930;9.532;2023-08-20T01:01:43;15.52;;;7.63;;
56267;SDS011;42175;46.930;9.532;2023-08-20T01:04:09;17.60;;;8.27;;
56267;SDS011;42175;46.930;9.532;2023-08-20T01:06:39;15.68;;;7.80;;
56267;SDS011;42175;46.930;9.532;2023-08-20T01:12:13;12.67;;;7.77;;
56267;SDS011;42175;46.930;9.532;2023-08-20T01:14:41;12.63;;;8.00;;
56267;SDS011;42175;46.930;9.532;2023-08-20T01:17:07;12.77;;;7.50;;
56267;SDS011;42175;46.930;9.532;2023-08-20T01:19:33;13.35;;;8.13;;
56267;SDS011;42175;46.930;9.532;2023-08-20T01:24:45;13.85;;;7.88;;
56267;SDS011;42175;46.930;9.532;2023-08-20T01:32:33;14.43;;;7.28;;
56267;SDS011;42175;46.930;9.532;2023-08-20T01:35:00;16.52;;;7.85;;
56267;SDS011;42175;46.930;9.532;2023-08-20T01:37:26;9.95;;;7.15;;
56267;SDS011;42175;46.930;9.532;2023-08-20T01:39:51;11.43;;;7.88;;
56267;SDS011;42175;46.930;9.532;2023-08-20T01:42:17;14.32;;;7.72;;
56267;SDS011;42175;46.930;9.532;2023-08-20T01:44:44;10.60;;;6.80;;
56267;SDS011;42175;46.930;9.532;2023-08-20T01:47:10;14.07;;;7.53;;
56267;SDS011;42175;46.930;9.532;2023-08-20T01:49:35;18.42;;;8.18;;
56267;SDS011;42175;46.930;9.532;2023-08-20T01:52:01;15.18;;;8.30;;
56267;SDS011;42175;46.930;9.532;2023-08-20T01:54:27;14.00;;;8.73;;
56267;SDS011;42175;46.930;9.532;2023-08-20T01:56:54;13.23;;;7.03;;
56267;SDS011;42175;46.930;9.532;2023-08-20T01:59:20;13.18;;;7.38;;
56267;SDS011;42175;46.930;9.532;2023-08-20T02:01:47;9.73;;;6.85;;
56267;SDS011;42175;46.930;9.532;2023-08-20T02:04:12;15.07;;;7.60;;
56267;SDS011;42175;46.930;9.532;2023-08-20T02:06:38;14.23;;;7.50;;
56267;SDS011;42175;46.930;9.532;2023-08-20T02:09:04;12.27;;;7.25;;
56267;SDS011;42175;46.930;9.532;2023-08-20T02:11:30;14.55;;;7.88;;
56267;SDS011;42175;46.930;9.532;2023-08-20T02:14:00;16.40;;;7.53;;
56267;SDS011;42175;46.930;9.532;2023-08-20T02:16:26;12.25;;;6.93;;
56267;SDS011;42175;46.930;9.532;2023-08-20T02:18:52;11.20;;;6.70;;
56267;SDS011;42175;46.930;9.532;2023-08-20T02:21:18;11.40;;;7.07;;
56267;SDS011;42175;46.930;9.532;2023-08-20T02:23:44;12.85;;;7.28;;
56267;SDS011;42175;46.930;9.532;2023-08-20T02:26:09;15.07;;;7.07;;
56267;SDS011;42175;46.930;9.532;2023-08-20T02:28:35;10.43;;;6.55;;
56267;SDS011;42175;46.930;9.532;2023-08-20T02:31:03;13.82;;;7.82;;
56267;SDS011;42175;46.930;9.532;2023-08-20T02:33:30;12.18;;;7.03;;
56267;SDS011;42175;46.930;9.532;2023-08-20T02:36:00;10.00;;;7.50;;
56267;SDS011;42175;46.930;9.532;2023-08-20T02:38:27;12.07;;;7.95;;
56267;SDS011;42175;46.930;9.532;2023-08-20T02:40:53;13.95;;;7.25;;
56267;SDS011;42175;46.930;9.532;2023-08-20T02:43:19;13.38;;;7.03;;
56267;SDS011;42175;46.930;9.532;2023-08-20T02:45:45;12.82;;;7.00;;
56267;SDS011;42175;46.930;9.532;2023-08-20T02:48:11;16.38;;;7.18;;
56267;SDS011;42175;46.930;9.532;2023-08-20T02:50:37;13.68;;;7.22;;
56267;SDS011;42175;46.930;9.532;2023-08-20T02:53:03;18.95;;;7.65;;
56267;SDS011;42175;46.930;9.532;2023-08-20T02:55:30;11.35;;;6.88;;
56267;SDS011;42175;46.930;9.532;2023-08-20T02:57:56;18.55;;;7.35;;
56267;SDS011;42175;46.930;9.532;2023-08-20T03:00:22;15.05;;;7.22;;
56267;SDS011;42175;46.930;9.532;2023-08-20T03:02:48;12.43;;;7.20;;
56267;SDS011;42175;46.930;9.532;2023-08-20T03:05:14;13.25;;;7.25;;
56267;SDS011;42175;46.930;9.532;2023-08-20T03:07:40;15.73;;;7.03;;
56267;SDS011;42175;46.930;9.532;2023-08-20T03:10:06;15.25;;;7.75;;
56267;SDS011;42175;46.930;9.532;2023-08-20T03:12:32;16.52;;;7.25;;
56267;SDS011;42175;46.930;9.532;2023-08-20T03:14:59;11.10;;;6.88;;
56267;SDS011;42175;46.930;9.532;2023-08-20T03:17:25;9.05;;;7.20;;
56267;SDS011;42175;46.930;9.532;2023-08-20T03:19:55;12.38;;;7.05;;
56267;SDS011;42175;46.930;9.532;2023-08-20T03:22:25;11.23;;;6.25;;
56267;SDS011;42175;46.930;9.532;2023-08-20T03:24:52;12.27;;;6.82;;
56267;SDS011;42175;46.930;9.532;2023-08-20T03:27:18;8.25;;;6.40;;
56267;SDS011;42175;46.930;9.532;2023-08-20T03:29:45;16.67;;;7.13;;
56267;SDS011;42175;46.930;9.532;2023-08-20T03:32:11;10.55;;;7.13;;
56267;SDS011;42175;46.930;9.532;2023-08-20T03:34:37;16.42;;;6.78;;
56267;SDS011;42175;46.930;9.532;2023-08-20T03:37:03;9.35;;;6.90;;
56267;SDS011;42175;46.930;9.532;2023-08-20T03:39:30;11.65;;;6.70;;
56267;SDS011;42175;46.930;9.532;2023-08-20T03:41:57;14.77;;;7.32;;
56267;SDS011;42175;46.930;9.532;2023-08-20T03:44:23;11.77;;;6.90;;
56267;SDS011;42175;46.930;9.532;2023-08-20T03:46:49;17.02;;;7.22;;
56267;SDS011;42175;46.930;9.532;2023-08-20T03:49:15;12.90;;;7.53;;
56267;SDS011;42175;46.930;9.532;2023-08-20T03:51:40;12.68;;;6.95;;
56267;SDS011;42175;46.930;9.532;2023-08-20T03:54:08;15.38;;;6.68;;
56267;SDS011;42175;46.930;9.532;2023-08-20T03:56:34;14.80;;;7.32;;
56267;SDS011;42175;46.930;9.532;2023-08-20T03:59:01;9.75;;;6.60;;
56267;SDS011;42175;46.930;9.532;2023-08-20T04:01:27;13.82;;;7.40;;
56267;SDS011;42175;46.930;9.532;2023-08-20T04:03:53;14.32;;;7.60;;
56267;SDS011;42175;46.930;9.532;2023-08-20T04:06:19;11.43;;;6.75;;
56267;SDS011;42175;46.930;9.532;2023-08-20T04:08:44;9.93;;;6.43;;
56267;SDS011;42175;46.930;9.532;2023-08-20T04:11:10;13.20;;;6.95;;
56267;SDS011;42175;46.930;9.532;2023-08-20T04:13:36;13.60;;;7.13;;
56267;SDS011;42175;46.930;9.532;2023-08-20T04:16:02;11.57;;;7.05;;
56267;SDS011;42175;46.930;9.532;2023-08-20T04:18:28;15.20;;;7.10;;
56267;SDS011;42175;46.930;9.532;2023-08-20T04:20:54;17.25;;;7.82;;
56267;SDS011;42175;46.930;9.532;2023-08-20T04:23:22;12.18;;;6.28;;
56267;SDS011;42175;46.930;9.532;2023-08-20T04:25:48;10.32;;;5.88;;
56267;SDS011;42175;46.930;9.532;2023-08-20T04:28:14;13.63;;;6.72;;
56267;SDS011;42175;46.930;9.532;2023-08-20T04:30:40;12.45;;;6.38;;
56267;SDS011;42175;46.930;9.532;2023-08-20T04:33:05;8.68;;;6.57;;
56267;SDS011;42175;46.930;9.532;2023-08-20T04:35:31;12.90;;;6.60;;
56267;SDS011;42175;46.930;9.532;2023-08-20T04:37:58;13.98;;;6.85;;
56267;SDS011;42175;46.930;9.532;2023-08-20T04:40:24;11.63;;;6.28;;
56267;SDS011;42175;46.930;9.532;2023-08-20T04:42:50;12.20;;;6.80;;
56267;SDS011;42175;46.930;9.532;2023-08-20T04:45:16;15.20;;;6.80;;
56267;SDS011;42175;46.930;9.532;2023-08-20T04:47:46;12.95;;;6.05;;
56267;SDS011;42175;46.930;9.532;2023-08-20T04:50:12;10.43;;;5.47;;
56267;SDS011;42175;46.930;9.532;2023-08-20T04:52:41;9.82;;;6.13;;
56267;SDS011;42175;46.930;9.532;2023-08-20T04:55:06;14.18;;;6.93;;
56267;SDS011;42175;46.930;9.532;2023-08-20T04:57:33;12.57;;;6.32;;
56267;SDS011;42175;46.930;9.532;2023-08-20T04:59:59;11.48;;;6.60;;
56267;SDS011;42175;46.930;9.532;2023-08-20T05:02:25;11.50;;;6.68;;
56267;SDS011;42175;46.930;9.532;2023-08-20T05:04:51;9.43;;;6.07;;
56267;SDS011;42175;46.930;9.532;2023-08-20T05:07:17;10.90;;;5.82;;
56267;SDS011;42175;46.930;9.532;2023-08-20T05:09:43;9.95;;;6.43;;
56267;SDS011;42175;46.930;9.532;2023-08-20T05:12:09;10.93;;;5.78;;
56267;SDS011;42175;46.930;9.532;2023-08-20T05:14:35;9.82;;;6.03;;
56267;SDS011;42175;46.930;9.532;2023-08-20T05:17:00;12.05;;;5.90;;
56267;SDS011;42175;46.930;9.532;2023-08-20T05:19:27;13.25;;;6.20;;
56267;SDS011;42175;46.930;9.532;2023-08-20T05:21:53;10.50;;;6.82;;
56267;SDS011;42175;46.930;9.532;2023-08-20T05:24:22;9.80;;;6.72;;
56267;SDS011;42175;46.930;9.532;2023-08-20T05:26:49;10.52;;;6.50;;
56267;SDS011;42175;46.930;9.532;2023-08-20T05:29:39;11.45;;;6.53;;
56267;SDS011;42175;46.930;9.532;2023-08-20T05:32:05;9.32;;;6.15;;
56267;SDS011;42175;46.930;9.532;2023-08-20T05:34:32;8.63;;;6.13;;
56267;SDS011;42175;46.930;9.532;2023-08-20T05:36:58;9.57;;;5.85;;
56267;SDS011;42175;46.930;9.532;2023-08-20T05:39:24;9.23;;;6.30;;
56267;SDS011;42175;46.930;9.532;2023-08-20T05:41:51;16.63;;;6.50;;
56267;SDS011;42175;46.930;9.532;2023-08-20T05:44:20;11.20;;;6.20;;
56267;SDS011;42175;46.930;9.532;2023-08-20T05:46:46;12.60;;;6.07;;
56267;SDS011;42175;46.930;9.532;2023-08-20T05:49:13;12.45;;;6.93;;
56267;SDS011;42175;46.930;9.532;2023-08-20T05:51:41;15.43;;;7.68;;
56267;SDS011;42175;46.930;9.532;2023-08-20T05:54:08;18.10;;;8.32;;
56267;SDS011;42175;46.930;9.532;2023-08-20T05:56:33;20.92;;;7.90;;
56267;SDS011;42175;46.930;9.532;2023-08-20T05:58:59;19.25;;;8.05;;
56267;SDS011;42175;46.930;9.532;2023-08-20T06:01:25;18.38;;;7.43;;
56267;SDS011;42175;46.930;9.532;2023-08-20T06:03:51;19.60;;;8.20;;
56267;SDS011;42175;46.930;9.532;2023-08-20T06:06:16;17.63;;;8.13;;
56267;SDS011;42175;46.930;9.532;2023-08-20T06:08:42;18.95;;;7.65;;
56267;SDS011;42175;46.930;9.532;2023-08-20T06:11:08;20.10;;;7.63;;
56267;SDS011;42175;46.930;9.532;2023-08-20T06:13:34;13.75;;;7.60;;
56267;SDS011;42175;46.930;9.532;2023-08-20T06:15:59;16.20;;;7.68;;
56267;SDS011;42175;46.930;9.532;2023-08-20T06:18:25;11.05;;;7.00;;
56267;SDS011;42175;46.930;9.532;2023-08-20T06:20:51;19.95;;;7.90;;
56267;SDS011;42175;46.930;9.532;2023-08-20T06:23:17;11.93;;;7.18;;
56267;SDS011;42175;46.930;9.532;2023-08-20T06:25:43;13.40;;;6.65;;
56267;SDS011;42175;46.930;9.532;2023-08-20T06:28:09;15.88;;;7.63;;
56267;SDS011;42175;46.930;9.532;2023-08-20T06:30:35;14.75;;;6.85;;
56267;SDS011;42175;46.930;9.532;2023-08-20T06:33:01;10.95;;;6.35;;
56267;SDS011;42175;46.930;9.532;2023-08-20T06:35:27;17.85;;;7.63;;
56267;SDS011;42175;46.930;9.532;2023-08-20T06:37:53;16.08;;;8.18;;
56267;SDS011;42175;46.930;9.532;2023-08-20T06:40:18;13.68;;;7.45;;
56267;SDS011;42175;46.930;9.532;2023-08-20T06:42:44;16.10;;;7.95;;
56267;SDS011;42175;46.930;9.532;2023-08-20T06:45:10;12.55;;;7.60;;
56267;SDS011;42175;46.930;9.532;2023-08-20T06:47:36;13.43;;;6.63;;
56267;SDS011;42175;46.930;9.532;2023-08-20T06:50:02;14.70;;;7.45;;
56267;SDS011;42175;46.930;9.532;2023-08-20T06:52:29;14.73;;;7.60;;
56267;SDS011;42175;46.930;9.532;2023-08-20T06:54:55;14.15;;;7.72;;
56267;SDS011;42175;46.930;9.532;2023-08-20T06:57:20;23.77;;;12.45;;
56267;SDS011;42175;46.930;9.532;2023-08-20T06:59:46;23.23;;;9.63;;
56267;SDS011;42175;46.930;9.532;2023-08-20T07:02:12;15.15;;;7.88;;
56267;SDS011;42175;46.930;9.532;2023-08-20T07:04:38;19.25;;;8.02;;
56267;SDS011;42175;46.930;9.532;2023-08-20T07:07:04;15.25;;;7.28;;
56267;SDS011;42175;46.930;9.532;2023-08-20T07:09:33;12.75;;;7.65;;
56267;SDS011;42175;46.930;9.532;2023-08-20T07:11:59;14.40;;;7.60;;
56267;SDS011;42175;46.930;9.532;2023-08-20T07:14:25;16.30;;;6.72;;
56267;SDS011;42175;46.930;9.532;2023-08-20T07:16:51;18.15;;;7.65;;
56267;SDS011;42175;46.930;9.532;2023-08-20T07:19:17;15.93;;;7.35;;
56267;SDS011;42175;46.930;9.532;2023-08-20T07:21:43;16.45;;;8.35;;
56267;SDS011;42175;46.930;9.532;2023-08-20T07:24:08;13.25;;;7.45;;
56267;SDS011;42175;46.930;9.532;2023-08-20T07:26:34;16.27;;;7.43;;
56267;SDS011;42175;46.930;9.532;2023-08-20T07:29:00;14.07;;;6.93;;
56267;SDS011;42175;46.930;9.532;2023-08-20T07:31:26;12.40;;;7.43;;
56267;SDS011;42175;46.930;9.532;2023-08-20T07:33:56;17.50;;;8.52;;
56267;SDS011;42175;46.930;9.532;2023-08-20T07:36:24;12.93;;;8.18;;
56267;SDS011;42175;46.930;9.532;2023-08-20T07:38:51;16.80;;;7.80;;
56267;SDS011;42175;46.930;9.532;2023-08-20T07:41:18;17.70;;;7.55;;
56267;SDS011;42175;46.930;9.532;2023-08-20T07:43:47;12.70;;;7.80;;
56267;SDS011;42175;46.930;9.532;2023-08-20T07:46:14;13.52;;;7.82;;
56267;SDS011;42175;46.930;9.532;2023-08-20T07:48:40;17.35;;;7.72;;
56267;SDS011;42175;46.930;9.532;2023-08-20T07:51:06;10.70;;;7.45;;
56267;SDS011;42175;46.930;9.532;2023-08-20T07:53:32;12.30;;;7.68;;
56267;SDS011;42175;46.930;9.532;2023-08-20T07:56:00;16.00;;;8.23;;
56267;SDS011;42175;46.930;9.532;2023-08-20T07:58:26;17.67;;;8.30;;
56267;SDS011;42175;46.930;9.532;2023-08-20T08:00:53;17.08;;;7.65;;
56267;SDS011;42175;46.930;9.532;2023-08-20T08:03:20;11.27;;;7.72;;
56267;SDS011;42175;46.930;9.532;2023-08-20T08:05:49;14.07;;;7.07;;
56267;SDS011;42175;46.930;9.532;2023-08-20T08:08:16;16.10;;;8.13;;
56267;SDS011;42175;46.930;9.532;2023-08-20T08:10:42;12.85;;;7.47;;
56267;SDS011;42175;46.930;9.532;2023-08-20T08:13:11;11.73;;;7.63;;
56267;SDS011;42175;46.930;9.532;2023-08-20T08:15:38;14.98;;;7.78;;
56267;SDS011;42175;46.930;9.532;2023-08-20T08:18:04;20.85;;;8.32;;
56267;SDS011;42175;46.930;9.532;2023-08-20T08:20:30;9.82;;;7.35;;
56267;SDS011;42175;46.930;9.532;2023-08-20T08:22:56;11.85;;;7.28;;
56267;SDS011;42175;46.930;9.532;2023-08-20T08:25:22;10.98;;;7.40;;
56267;SDS011;42175;46.930;9.532;2023-08-20T08:27:48;13.65;;;7.93;;
56267;SDS011;42175;46.930;9.532;2023-08-20T08:30:14;7.97;;;6.63;;
56267;SDS011;42175;46.930;9.532;2023-08-20T08:32:40;11.25;;;6.78;;
56267;SDS011;42175;46.930;9.532;2023-08-20T08:35:06;14.07;;;6.78;;
56267;SDS011;42175;46.930;9.532;2023-08-20T08:37:32;11.70;;;6.80;;
56267;SDS011;42175;46.930;9.532;2023-08-20T08:39:58;14.30;;;7.28;;
56267;SDS011;42175;46.930;9.532;2023-08-20T08:42:24;8.57;;;7.15;;
56267;SDS011;42175;46.930;9.532;2023-08-20T08:44:51;23.15;;;8.52;;
56267;SDS011;42175;46.930;9.532;2023-08-20T08:47:21;13.57;;;7.03;;
56267;SDS011;42175;46.930;9.532;2023-08-20T08:49:47;14.55;;;7.35;;
56267;SDS011;42175;46.930;9.532;2023-08-20T08:52:14;16.80;;;7.47;;
56267;SDS011;42175;46.930;9.532;2023-08-20T08:54:40;15.70;;;7.28;;
56267;SDS011;42175;46.930;9.532;2023-08-20T08:57:06;16.75;;;7.32;;
56267;SDS011;42175;46.930;9.532;2023-08-20T08:59:33;11.55;;;7.65;;
56267;SDS011;42175;46.930;9.532;2023-08-20T09:01:58;16.42;;;8.82;;
56267;SDS011;42175;46.930;9.532;2023-08-20T09:04:24;12.20;;;7.05;;
56267;SDS011;42175;46.930;9.532;2023-08-20T09:06:51;12.77;;;6.75;;
56267;SDS011;42175;46.930;9.532;2023-08-20T09:09:18;12.30;;;7.60;;
56267;SDS011;42175;46.930;9.532;2023-08-20T09:11:45;24.08;;;8.68;;
56267;SDS011;42175;46.930;9.532;2023-08-20T09:14:27;20.83;;;7.60;;
56267;SDS011;42175;46.930;9.532;2023-08-20T09:16:57;16.00;;;7.78;;
56267;SDS011;42175;46.930;9.532;2023-08-20T09:19:24;17.55;;;7.10;;
56267;SDS011;42175;46.930;9.532;2023-08-20T09:21:53;22.33;;;8.02;;
56267;SDS011;42175;46.930;9.532;2023-08-20T09:24:32;15.30;;;7.18;;
56267;SDS011;42175;46.930;9.532;2023-08-20T09:27:02;14.10;;;7.80;;
56267;SDS011;42175;46.930;9.532;2023-08-20T09:29:31;12.82;;;7.50;;
56267;SDS011;42175;46.930;9.532;2023-08-20T09:32:02;17.30;;;7.57;;
56267;SDS011;42175;46.930;9.532;2023-08-20T09:34:37;18.42;;;8.35;;
56267;SDS011;42175;46.930;9.532;2023-08-20T09:37:10;17.55;;;7.53;;
56267;SDS011;42175;46.930;9.532;2023-08-20T09:39:40;17.13;;;7.65;;
56267;SDS011;42175;46.930;9.532;2023-08-20T09:42:06;26.33;;;8.98;;
56267;SDS011;42175;46.930;9.532;2023-08-20T09:44:34;20.75;;;8.13;;
56267;SDS011;42175;46.930;9.532;2023-08-20T09:47:05;30.70;;;7.75;;
56267;SDS011;42175;46.930;9.532;2023-08-20T09:49:35;17.65;;;8.05;;
56267;SDS011;42175;46.930;9.532;2023-08-20T09:52:16;17.88;;;8.20;;
56267;SDS011;42175;46.930;9.532;2023-08-20T09:57:33;19.43;;;7.33;;
56267;SDS011;42175;46.930;9.532;2023-08-20T10:00:01;29.45;;;8.63;;
56267;SDS011;42175;46.930;9.532;2023-08-20T10:02:28;26.27;;;10.27;;
56267;SDS011;42175;46.930;9.532;2023-08-20T10:04:54;26.30;;;9.00;;
56267;SDS011;42175;46.930;9.532;2023-08-20T10:07:21;26.33;;;9.35;;
56267;SDS011;42175;46.930;9.532;2023-08-20T10:09:50;24.67;;;9.60;;
56267;SDS011;42175;46.930;9.532;2023-08-20T10:12:17;24.05;;;8.70;;
56267;SDS011;42175;46.930;9.532;2023-08-20T10:14:43;17.98;;;8.02;;
56267;SDS011;42175;46.930;9.532;2023-08-20T10:17:11;15.52;;;7.82;;
56267;SDS011;42175;46.930;9.532;2023-08-20T10:19:38;16.63;;;8.40;;
56267;SDS011;42175;46.930;9.532;2023-08-20T10:22:04;16.38;;;8.45;;
56267;SDS011;42175;46.930;9.532;2023-08-20T10:24:41;16.70;;;7.50;;
56267;SDS011;42175;46.930;9.532;2023-08-20T10:27:27;18.20;;;7.55;;
56267;SDS011;42175;46.930;9.532;2023-08-20T10:29:56;14.20;;;7.50;;
56267;SDS011;42175;46.930;9.532;2023-08-20T10:35:14;13.80;;;7.53;;
56267;SDS011;42175;46.930;9.532;2023-08-20T10:38:01;15.38;;;7.47;;
56267;SDS011;42175;46.930;9.532;2023-08-20T10:46:16;13.65;;;7.18;;
56267;SDS011;42175;46.930;9.532;2023-08-20T10:48:56;12.02;;;7.57;;
56267;SDS011;42175;46.930;9.532;2023-08-20T10:51:27;12.70;;;7.88;;
56267;SDS011;42175;46.930;9.532;2023-08-20T11:01:47;13.52;;;6.90;;
56267;SDS011;42175;46.930;9.532;2023-08-20T11:04:17;11.02;;;7.28;;
56267;SDS011;42175;46.930;9.532;2023-08-20T11:06:45;10.82;;;7.45;;
56267;SDS011;42175;46.930;9.532;2023-08-20T11:09:12;10.75;;;7.15;;
56267;SDS011;42175;46.930;9.532;2023-08-20T11:11:39;10.38;;;7.40;;
56267;SDS011;42175;46.930;9.532;2023-08-20T11:14:11;15.45;;;7.22;;
56267;SDS011;42175;46.930;9.532;2023-08-20T11:16:39;12.10;;;7.28;;
56267;SDS011;42175;46.930;9.532;2023-08-20T11:19:05;10.68;;;6.57;;
56267;SDS011;42175;46.930;9.532;2023-08-20T11:21:42;11.30;;;7.13;;
56267;SDS011;42175;46.930;9.532;2023-08-20T11:24:09;12.80;;;8.02;;
56267;SDS011;42175;46.930;9.532;2023-08-20T11:26:35;11.77;;;7.30;;
56267;SDS011;42175;46.930;9.532;2023-08-20T11:29:07;10.15;;;6.93;;
56267;SDS011;42175;46.930;9.532;2023-08-20T11:31:37;12.52;;;7.72;;
56267;SDS011;42175;46.930;9.532;2023-08-20T11:34:03;15.10;;;8.00;;
56267;SDS011;42175;46.930;9.532;2023-08-20T11:36:30;10.23;;;7.57;;
56267;SDS011;42175;46.930;9.532;2023-08-20T11:38:56;12.35;;;6.97;;
56267;SDS011;42175;46.930;9.532;2023-08-20T11:41:22;14.00;;;7.30;;
56267;SDS011;42175;46.930;9.532;2023-08-20T11:43:50;10.63;;;6.72;;
56267;SDS011;42175;46.930;9.532;2023-08-20T11:46:21;11.23;;;7.28;;
56267;SDS011;42175;46.930;9.532;2023-08-20T11:49:01;11.77;;;7.22;;
56267;SDS011;42175;46.930;9.532;2023-08-20T11:51:49;9.40;;;7.35;;
56267;SDS011;42175;46.930;9.532;2023-08-20T11:54:15;13.30;;;7.53;;
56267;SDS011;42175;46.930;9.532;2023-08-20T11:59:12;10.13;;;6.95;;
56267;SDS011;42175;46.930;9.532;2023-08-20T12:01:40;10.82;;;7.93;;
56267;SDS011;42175;46.930;9.532;2023-08-20T12:04:06;12.80;;;7.47;;
56267;SDS011;42175;46.930;9.532;2023-08-20T12:06:33;19.42;;;7.97;;
56267;SDS011;42175;46.930;9.532;2023-08-20T12:09:01;10.98;;;7.43;;
56267;SDS011;42175;46.930;9.532;2023-08-20T12:11:48;11.45;;;7.63;;
56267;SDS011;42175;46.930;9.532;2023-08-20T12:14:16;12.05;;;7.75;;
56267;SDS011;42175;46.930;9.532;2023-08-20T12:16:43;15.85;;;8.15;;
56267;SDS011;42175;46.930;9.532;2023-08-20T12:19:08;8.68;;;7.25;;
56267;SDS011;42175;46.930;9.532;2023-08-20T12:21:34;12.05;;;7.90;;
56267;SDS011;42175;46.930;9.532;2023-08-20T12:24:00;10.88;;;8.25;;
56267;SDS011;42175;46.930;9.532;2023-08-20T12:26:26;10.55;;;8.05;;
56267;SDS011;42175;46.930;9.532;2023-08-20T12:28:51;12.20;;;8.20;;
56267;SDS011;42175;46.930;9.532;2023-08-20T12:31:17;12.63;;;8.07;;
56267;SDS011;42175;46.930;9.532;2023-08-20T12:33:43;15.13;;;8.35;;
56267;SDS011;42175;46.930;9.532;2023-08-20T12:36:08;12.75;;;7.75;;
56267;SDS011;42175;46.930;9.532;2023-08-20T12:38:34;12.73;;;8.43;;
56267;SDS011;42175;46.930;9.532;2023-08-20T12:41:00;11.23;;;7.75;;
56267;SDS011;42175;46.930;9.532;2023-08-20T12:43:28;13.30;;;8.30;;
56267;SDS011;42175;46.930;9.532;2023-08-20T12:45:54;11.85;;;8.43;;
56267;SDS011;42175;46.930;9.532;2023-08-20T12:48:20;14.30;;;8.60;;
56267;SDS011;42175;46.930;9.532;2023-08-20T12:50:45;11.85;;;8.73;;
56267;SDS011;42175;46.930;9.532;2023-08-20T12:53:11;21.60;;;9.05;;
56267;SDS011;42175;46.930;9.532;2023-08-20T12:55:38;13.63;;;8.32;;
56267;SDS011;42175;46.930;9.532;2023-08-20T12:58:04;11.68;;;8.38;;
56267;SDS011;42175;46.930;9.532;2023-08-20T13:00:29;11.32;;;7.78;;
56267;SDS011;42175;46.930;9.532;2023-08-20T13:02:55;14.90;;;8.13;;
56267;SDS011;42175;46.930;9.532;2023-08-20T13:05:23;20.60;;;8.98;;
56267;SDS011;42175;46.930;9.532;2023-08-20T13:07:49;16.48;;;7.88;;
56267;SDS011;42175;46.930;9.532;2023-08-20T13:10:16;12.68;;;7.95;;
56267;SDS011;42175;46.930;9.532;2023-08-20T13:12:45;13.68;;;8.40;;
56267;SDS011;42175;46.930;9.532;2023-08-20T13:15:15;13.20;;;8.32;;
56267;SDS011;42175;46.930;9.532;2023-08-20T13:17:42;12.32;;;8.68;;
56267;SDS011;42175;46.930;9.532;2023-08-20T13:20:08;11.10;;;8.45;;
56267;SDS011;42175;46.930;9.532;2023-08-20T13:22:34;10.95;;;7.78;;
56267;SDS011;42175;46.930;9.532;2023-08-20T13:25:01;14.35;;;8.98;;
56267;SDS011;42175;46.930;9.532;2023-08-20T13:27:26;13.50;;;8.10;;
56267;SDS011;42175;46.930;9.532;2023-08-20T13:29:52;13.35;;;7.93;;
56267;SDS011;42175;46.930;9.532;2023-08-20T13:32:18;9.45;;;7.90;;
56267;SDS011;42175;46.930;9.532;2023-08-20T13:34:44;17.35;;;9.27;;
56267;SDS011;42175;46.930;9.532;2023-08-20T13:37:09;16.33;;;8.93;;
56267;SDS011;42175;46.930;9.532;2023-08-20T13:39:35;10.38;;;7.50;;
56267;SDS011;42175;46.930;9.532;2023-08-20T13:42:01;12.20;;;8.48;;
56267;SDS011;42175;46.930;9.532;2023-08-20T13:44:26;12.40;;;8.65;;
56267;SDS011;42175;46.930;9.532;2023-08-20T13:46:52;14.98;;;8.10;;
56267;SDS011;42175;46.930;9.532;2023-08-20T13:49:17;13.25;;;7.55;;
56267;SDS011;42175;46.930;9.532;2023-08-20T13:51:43;12.20;;;8.45;;
56267;SDS011;42175;46.930;9.532;2023-08-20T13:54:09;12.95;;;7.95;;
56267;SDS011;42175;46.930;9.532;2023-08-20T13:56:34;12.73;;;8.25;;
56267;SDS011;42175;46.930;9.532;2023-08-20T13:59:00;12.27;;;8.27;;
56267;SDS011;42175;46.930;9.532;2023-08-20T14:01:26;15.05;;;8.55;;
56267;SDS011;42175;46.930;9.532;2023-08-20T14:03:52;17.75;;;7.43;;
56267;SDS011;42175;46.930;9.532;2023-08-20T14:06:18;19.55;;;9.95;;
56267;SDS011;42175;46.930;9.532;2023-08-20T14:08:44;37.20;;;11.48;;
56267;SDS011;42175;46.930;9.532;2023-08-20T14:11:10;47.85;;;14.25;;
56267;SDS011;42175;46.930;9.532;2023-08-20T14:13:36;47.42;;;14.50;;
56267;SDS011;42175;46.930;9.532;2023-08-20T14:16:02;39.83;;;14.32;;
56267;SDS011;42175;46.930;9.532;2023-08-20T14:18:28;40.83;;;13.57;;
56267;SDS011;42175;46.930;9.532;2023-08-20T14:20:53;38.47;;;14.38;;
56267;SDS011;42175;46.930;9.532;2023-08-20T14:23:19;55.03;;;17.67;;
56267;SDS011;42175;46.930;9.532;2023-08-20T14:25:45;43.88;;;16.30;;
56267;SDS011;42175;46.930;9.532;2023-08-20T14:28:11;44.00;;;13.40;;
56267;SDS011;42175;46.930;9.532;2023-08-20T14:30:39;39.47;;;13.10;;
56267;SDS011;42175;46.930;9.532;2023-08-20T14:33:05;40.47;;;14.52;;
56267;SDS011;42175;46.930;9.532;2023-08-20T14:35:32;39.35;;;13.48;;
56267;SDS011;42175;46.930;9.532;2023-08-20T14:37:58;34.75;;;13.38;;
56267;SDS011;42175;46.930;9.532;2023-08-20T14:40:23;33.15;;;12.90;;
56267;SDS011;42175;46.930;9.532;2023-08-20T14:42:49;35.92;;;13.52;;
56267;SDS011;42175;46.930;9.532;2023-08-20T14:45:16;31.40;;;12.20;;
56267;SDS011;42175;46.930;9.532;2023-08-20T14:47:41;28.85;;;11.85;;
56267;SDS011;42175;46.930;9.532;2023-08-20T14:50:07;32.50;;;13.68;;
56267;SDS011;42175;46.930;9.532;2023-08-20T14:52:33;23.63;;;12.00;;
56267;SDS011;42175;46.930;9.532;2023-08-20T14:54:59;26.75;;;11.63;;
56267;SDS011;42175;46.930;9.532;2023-08-20T14:57:26;21.30;;;10.95;;
56267;SDS011;42175;46.930;9.532;2023-08-20T14:59:52;28.23;;;12.30;;
56267;SDS011;42175;46.930;9.532;2023-08-20T15:02:17;25.42;;;11.20;;
56267;SDS011;42175;46.930;9.532;2023-08-20T15:04:43;23.60;;;11.38;;